createdAt,value
2022-08-14T00:01:54.407Z,1.95
2022-08-14T00:04:35.032Z,1.88
2022-08-14T00:07:08.437Z,1.70
2022-08-14T00:09:40.020Z,1.92
2022-08-14T00:12:33.161Z,1.50
2022-08-14T00:15:03.667Z,2.00
2022-08-14T00:17:38.094Z,1.83
2022-08-14T00:20:24.017Z,1.75
2022-08-14T00:23:12.290Z,1.50
2022-08-14T00:25:58.888Z,1.60
2022-08-14T00:28:35.855Z,1.90
2022-08-14T00:31:04.964Z,1.73
2022-08-14T00:33:50.510Z,1.48
2022-08-14T00:36:47.137Z,1.55
2022-08-14T00:39:14.224Z,1.92
2022-08-14T00:41:42.628Z,1.60
2022-08-14T00:44:10.569Z,2.08
2022-08-14T00:46:38.755Z,1.80
2022-08-14T00:49:11.397Z,1.60
2022-08-14T00:51:39.622Z,1.92
2022-08-14T00:54:17.075Z,1.80
2022-08-14T00:56:50.406Z,1.65
2022-08-14T00:59:18.617Z,1.65
2022-08-14T01:01:48.558Z,1.55
2022-08-14T01:04:52.225Z,1.73
2022-08-14T01:07:08.256Z,1.95
2022-08-14T01:09:39.241Z,1.52
2022-08-14T01:12:08.511Z,1.77
2022-08-14T01:14:36.440Z,2.33
2022-08-14T01:17:05.327Z,1.73
2022-08-14T01:19:54.372Z,1.60
2022-08-14T01:22:26.873Z,1.63
2022-08-14T01:24:54.718Z,1.90
2022-08-14T01:27:25.034Z,1.98
2022-08-14T01:30:03.661Z,1.80
2022-08-14T01:32:37.306Z,1.88
2022-08-14T01:35:19.346Z,1.85
2022-08-14T01:37:59.094Z,1.80
2022-08-14T01:40:36.534Z,1.73
2022-08-14T01:43:15.963Z,2.42
2022-08-14T01:45:57.615Z,1.55
2022-08-14T01:48:37.042Z,2.25
2022-08-14T01:51:19.434Z,2.00
2022-08-14T01:53:55.873Z,1.65
2022-08-14T01:56:37.261Z,1.63
2022-08-14T01:59:09.998Z,1.90
2022-08-14T02:04:54.651Z,1.55
2022-08-14T02:07:34.885Z,1.85
2022-08-14T02:10:13.284Z,1.80
2022-08-14T02:12:48.834Z,1.63
2022-08-14T02:15:22.964Z,2.10
2022-08-14T02:17:51.349Z,1.73
2022-08-14T02:20:23.501Z,1.50
2022-08-14T02:22:55.048Z,1.75
2022-08-14T02:25:24.447Z,1.90
2022-08-14T02:28:23.307Z,1.85
2022-08-14T02:30:47.255Z,1.98
2022-08-14T02:33:15.381Z,1.90
2022-08-14T02:35:44.148Z,2.35
2022-08-14T02:38:30.232Z,2.00
2022-08-14T02:41:09.033Z,1.60
2022-08-14T02:43:46.430Z,1.90
2022-08-14T02:46:20.660Z,1.98
2022-08-14T02:49:05.617Z,1.67
2022-08-14T02:51:34.833Z,1.83
2022-08-14T02:54:07.435Z,1.80
2022-08-14T02:57:16.053Z,1.98
2022-08-14T02:59:33.415Z,1.85
2022-08-14T03:02:03.075Z,1.60
2022-08-14T03:04:31.562Z,1.92
2022-08-14T03:07:07.539Z,2.03
2022-08-14T03:10:24.693Z,1.63
2022-08-14T03:12:32.467Z,2.00
2022-08-14T03:15:03.833Z,1.88
2022-08-14T03:17:41.139Z,2.45
2022-08-14T03:20:22.372Z,2.15
2022-08-14T03:22:51.467Z,2.17
2022-08-14T03:25:22.046Z,1.73
2022-08-14T03:27:58.253Z,1.60
2022-08-14T03:30:38.948Z,1.95
2022-08-14T03:33:09.018Z,1.73
2022-08-14T03:36:00.207Z,2.03
2022-08-14T03:39:10.482Z,1.92
2022-08-14T03:41:17.883Z,1.73
2022-08-14T03:43:57.028Z,1.77
2022-08-14T03:46:52.405Z,1.83
2022-08-14T03:49:29.666Z,2.03
2022-08-14T03:52:00.787Z,1.90
2022-08-14T03:54:29.610Z,2.10
2022-08-14T03:57:02.940Z,1.98
2022-08-14T03:59:33.244Z,2.40
2022-08-14T04:02:02.508Z,1.85
2022-08-14T04:04:33.559Z,2.00
2022-08-14T04:07:03.612Z,2.03
2022-08-14T04:09:31.383Z,1.83
2022-08-14T04:11:59.908Z,1.98
2022-08-14T04:14:29.455Z,2.05
2022-08-14T04:16:58.623Z,1.90
2022-08-14T04:19:32.755Z,1.92
2022-08-14T04:22:04.476Z,1.90
2022-08-14T04:24:38.016Z,2.20
2022-08-14T04:27:07.350Z,2.10
2022-08-14T04:29:39.010Z,2.28
2022-08-14T04:32:57.439Z,2.47
2022-08-14T04:34:58.162Z,1.83
2022-08-14T04:37:46.636Z,1.95
2022-08-14T04:40:40.268Z,2.10
2022-08-14T04:43:26.485Z,2.08
2022-08-14T04:46:08.394Z,1.90
2022-08-14T04:48:43.070Z,2.00
2022-08-14T04:51:13.456Z,2.72
2022-08-14T04:53:44.683Z,2.00
2022-08-14T04:56:30.772Z,2.00
2022-08-14T04:59:10.474Z,2.47
2022-08-14T05:01:47.732Z,2.08
2022-08-14T05:04:21.087Z,2.13
2022-08-14T05:06:54.493Z,2.28
2022-08-14T05:09:24.532Z,2.00
2022-08-14T05:11:56.710Z,2.35
2022-08-14T05:14:53.502Z,1.90
2022-08-14T05:17:28.827Z,1.98
2022-08-14T05:21:05.137Z,2.65
2022-08-14T05:23:02.341Z,2.25
2022-08-14T05:25:34.204Z,2.22
2022-08-14T05:28:11.500Z,2.28
2022-08-14T05:30:44.615Z,2.08
2022-08-14T05:33:12.763Z,1.88
2022-08-14T05:35:42.433Z,1.63
2022-08-14T05:38:30.623Z,2.17
2022-08-14T05:41:00.086Z,1.70
2022-08-14T05:43:40.739Z,1.83
2022-08-14T05:46:11.602Z,1.90
2022-08-14T05:48:43.834Z,1.73
2022-08-14T05:51:14.371Z,1.88
2022-08-14T05:53:43.972Z,2.05
2022-08-14T05:56:29.710Z,1.70
2022-08-14T05:58:57.667Z,1.98
2022-08-14T06:01:31.286Z,2.10
2022-08-14T06:03:59.687Z,2.28
2022-08-14T06:06:32.620Z,2.20
2022-08-14T06:09:03.044Z,2.30
2022-08-14T06:11:31.362Z,1.92
2022-08-14T06:13:59.410Z,2.00
2022-08-14T06:16:27.472Z,1.67
2022-08-14T06:18:59.465Z,1.58
2022-08-14T06:21:27.613Z,1.63
2022-08-14T06:23:58.824Z,1.80
2022-08-14T06:26:30.270Z,1.88
2022-08-14T06:28:58.464Z,1.90
2022-08-14T06:31:26.258Z,1.95
2022-08-14T06:35:10.372Z,1.70
2022-08-14T06:36:42.297Z,1.75
2022-08-14T06:39:11.650Z,1.70
2022-08-14T06:41:57.839Z,2.00
2022-08-14T06:44:32.853Z,2.40
2022-08-14T06:47:02.575Z,2.20
2022-08-14T06:49:30.637Z,2.10
2022-08-14T06:52:08.375Z,2.33
2022-08-14T06:54:37.895Z,1.95
2022-08-14T06:57:05.803Z,2.45
2022-08-14T06:59:35.183Z,2.30
2022-08-14T07:02:19.762Z,2.50
2022-08-14T07:05:06.205Z,2.88
2022-08-14T07:07:39.145Z,2.78
2022-08-14T07:10:16.958Z,3.15
2022-08-14T07:13:01.941Z,2.55
2022-08-14T07:15:32.257Z,2.53
2022-08-14T07:18:00.868Z,2.22
2022-08-14T07:20:31.327Z,2.70
2022-08-14T07:23:06.934Z,2.67
2022-08-14T07:25:38.282Z,2.40
2022-08-14T07:28:20.333Z,2.53
2022-08-14T07:30:51.019Z,2.53
2022-08-14T07:33:28.967Z,2.40
2022-08-14T07:35:59.962Z,2.40
2022-08-14T07:38:35.898Z,2.60
2022-08-14T07:41:14.657Z,2.20
2022-08-14T07:43:53.007Z,2.33
2022-08-14T07:46:28.299Z,2.05
2022-08-14T07:48:58.314Z,2.30
2022-08-14T07:51:34.161Z,2.17
2022-08-14T07:54:09.852Z,2.00
2022-08-14T07:56:48.217Z,2.33
2022-08-14T07:59:18.799Z,2.33
2022-08-14T08:01:51.147Z,2.65
2022-08-14T08:04:25.129Z,2.40
2022-08-14T08:06:54.061Z,2.42
2022-08-14T08:09:32.428Z,2.20
2022-08-14T08:12:05.386Z,2.45
2022-08-14T08:14:56.116Z,2.30
2022-08-14T08:17:35.094Z,2.38
2022-08-14T08:20:09.289Z,2.05
2022-08-14T08:22:40.818Z,2.30
2022-08-14T08:25:13.502Z,2.03
2022-08-14T08:27:44.959Z,2.15
2022-08-14T08:30:14.174Z,2.00
2022-08-14T08:32:43.314Z,2.03
2022-08-14T08:35:17.643Z,1.88
2022-08-14T08:40:23.672Z,1.88
2022-08-14T08:45:29.415Z,1.85
2022-08-14T08:47:57.257Z,2.35
2022-08-14T08:53:02.186Z,1.92
2022-08-14T08:55:33.947Z,1.95
2022-08-14T08:58:05.583Z,2.05
2022-08-14T09:00:48.755Z,2.10
2022-08-14T09:03:20.587Z,2.00
2022-08-14T09:05:54.380Z,2.35
2022-08-14T09:08:30.578Z,2.17
2022-08-14T09:11:01.998Z,2.28
2022-08-14T09:13:33.173Z,2.55
2022-08-14T09:16:18.257Z,2.22
2022-08-14T09:18:47.911Z,2.30
2022-08-14T09:21:16.478Z,2.05
2022-08-14T09:24:26.158Z,2.05
2022-08-14T09:26:32.470Z,2.22
2022-08-14T09:29:02.690Z,2.20
2022-08-14T09:31:43.197Z,2.33
2022-08-14T09:34:31.180Z,2.05
2022-08-14T09:37:20.614Z,2.40
2022-08-14T09:40:00.988Z,2.20
2022-08-14T09:42:45.120Z,2.30
2022-08-14T09:45:20.899Z,2.55
2022-08-14T09:47:52.391Z,2.00
2022-08-14T09:50:26.891Z,2.33
2022-08-14T09:52:58.248Z,1.85
2022-08-14T09:55:28.233Z,2.13
2022-08-14T09:58:14.824Z,2.47
2022-08-14T10:00:50.681Z,2.13
2022-08-14T10:03:33.467Z,2.25
2022-08-14T10:06:09.853Z,2.30
2022-08-14T10:08:51.055Z,1.85
2022-08-14T10:11:23.351Z,2.00
2022-08-14T10:13:55.930Z,2.20
2022-08-14T10:16:33.612Z,2.00
2022-08-14T10:19:07.232Z,3.42
2022-08-14T10:21:58.867Z,2.30
2022-08-14T10:24:31.208Z,2.10
2022-08-14T10:27:06.473Z,2.30
2022-08-14T10:29:37.364Z,1.80
2022-08-14T10:32:17.593Z,1.85
2022-08-14T10:34:52.837Z,1.70
2022-08-14T10:37:23.795Z,1.30
2022-08-14T10:42:40.261Z,1.42
2022-08-14T10:45:21.631Z,1.50
2022-08-14T10:48:07.449Z,1.42
2022-08-14T10:50:45.902Z,1.27
2022-08-14T10:53:15.302Z,1.55
2022-08-14T10:55:45.289Z,1.77
2022-08-14T10:58:14.964Z,1.45
2022-08-14T11:00:56.653Z,1.40
2022-08-14T11:03:55.434Z,1.15
2022-08-14T11:06:20.384Z,1.13
2022-08-14T11:08:50.705Z,1.40
2022-08-14T11:11:20.918Z,1.35
2022-08-14T11:13:50.924Z,1.23
2022-08-14T11:16:19.656Z,0.90
2022-08-14T11:18:55.907Z,1.02
2022-08-14T11:21:30.011Z,0.73
2022-08-14T11:24:50.516Z,0.90
2022-08-14T11:30:51.368Z,1.00
2022-08-14T11:33:24.386Z,1.05
2022-08-14T11:35:59.549Z,1.50
2022-08-14T11:38:29.129Z,1.02
2022-08-14T11:40:58.184Z,1.00
2022-08-14T11:43:29.195Z,0.77
2022-08-14T11:45:58.367Z,1.50
2022-08-14T11:49:02.328Z,0.90
2022-08-14T11:51:30.437Z,1.15
2022-08-14T11:54:03.577Z,0.90
2022-08-14T11:56:37.054Z,1.33
2022-08-14T11:59:10.039Z,1.02
2022-08-14T12:01:41.346Z,1.30
2022-08-14T12:04:21.654Z,0.80
2022-08-14T12:07:01.747Z,0.80
2022-08-14T12:09:31.498Z,1.17
2022-08-14T12:11:59.679Z,0.95
2022-08-14T12:14:30.510Z,0.60
2022-08-14T12:17:12.259Z,0.77
2022-08-14T12:19:51.221Z,1.30
2022-08-14T12:22:34.643Z,1.00
2022-08-14T12:25:06.042Z,1.02
2022-08-14T12:27:51.834Z,1.02
2022-08-14T12:30:39.793Z,0.73
2022-08-14T12:33:30.835Z,0.73
2022-08-14T12:36:05.614Z,0.95
2022-08-14T12:38:38.602Z,0.88
2022-08-14T12:41:20.572Z,1.10
2022-08-14T12:43:53.463Z,0.77
2022-08-14T12:46:30.570Z,0.80
2022-08-14T12:49:00.390Z,0.80
2022-08-14T12:51:31.313Z,0.90
2022-08-14T12:54:01.277Z,0.82
2022-08-14T12:56:33.043Z,0.80
2022-08-14T12:59:03.523Z,0.80
2022-08-14T13:02:02.033Z,0.90
2022-08-14T13:04:22.878Z,1.00
2022-08-14T13:06:51.755Z,0.93
2022-08-14T13:09:27.786Z,1.10
2022-08-14T13:12:31.198Z,1.00
2022-08-14T13:14:54.653Z,0.88
2022-08-14T13:17:25.370Z,1.30
2022-08-14T13:19:57.249Z,1.25
2022-08-14T13:22:33.579Z,0.70
2022-08-14T13:25:15.860Z,1.23
2022-08-14T13:27:49.816Z,1.00
2022-08-14T13:30:28.616Z,0.98
2022-08-14T13:32:58.449Z,0.98
2022-08-14T13:35:27.666Z,1.17
2022-08-14T13:37:57.568Z,1.10
2022-08-14T13:40:32.122Z,1.00
2022-08-14T13:43:03.629Z,1.00
2022-08-14T13:46:00.516Z,1.10
2022-08-14T13:48:33.418Z,1.15
2022-08-14T13:51:11.173Z,1.00
2022-08-14T13:54:06.891Z,1.20
2022-08-14T13:56:43.727Z,1.10
2022-08-14T13:59:20.662Z,1.02
2022-08-14T14:02:08.498Z,0.85
2022-08-14T14:04:42.923Z,1.10
2022-08-14T14:07:16.482Z,1.00
2022-08-14T14:09:52.566Z,1.30
2022-08-14T14:12:49.134Z,1.08
2022-08-14T14:15:13.799Z,1.48
2022-08-14T14:17:44.077Z,1.25
2022-08-14T14:20:15.122Z,1.15
2022-08-14T14:23:09.296Z,1.23
2022-08-14T14:25:49.312Z,1.20
2022-08-14T14:28:27.217Z,1.45
2022-08-14T14:31:01.368Z,1.13
2022-08-14T14:33:47.569Z,0.82
2022-08-14T14:36:21.266Z,1.10
2022-08-14T14:38:53.594Z,1.10
2022-08-14T14:41:24.004Z,1.33
2022-08-14T14:43:58.134Z,1.02
2022-08-14T14:46:36.272Z,1.10
2022-08-14T14:49:08.168Z,1.05
2022-08-14T14:51:41.130Z,1.17
2022-08-14T14:54:13.053Z,1.05
2022-08-14T14:56:48.337Z,1.55
2022-08-14T14:59:21.249Z,1.20
2022-08-14T15:01:51.322Z,1.10
2022-08-14T15:04:20.980Z,1.15
2022-08-14T15:06:53.077Z,1.35
2022-08-14T15:09:23.796Z,1.02
2022-08-14T15:11:51.818Z,1.10
2022-08-14T15:14:55.989Z,1.30
2022-08-14T15:17:11.967Z,1.30
2022-08-14T15:19:40.160Z,1.20
2022-08-14T15:22:10.540Z,1.40
2022-08-14T15:24:39.874Z,1.10
2022-08-14T15:27:08.374Z,1.45
2022-08-14T15:29:38.715Z,1.40
2022-08-14T15:32:11.430Z,1.50
2022-08-14T15:34:51.247Z,1.38
2022-08-14T15:37:23.229Z,1.25
2022-08-14T15:39:52.644Z,1.77
2022-08-14T15:42:23.586Z,1.63
2022-08-14T15:44:58.444Z,1.65
2022-08-14T15:47:31.881Z,1.70
2022-08-14T15:50:03.131Z,1.20
2022-08-14T15:52:35.417Z,1.63
2022-08-14T15:55:08.078Z,1.40
2022-08-14T15:57:36.560Z,1.48
2022-08-14T16:00:40.722Z,1.67
2022-08-14T16:03:16.765Z,1.65
2022-08-14T16:05:46.111Z,1.50
2022-08-14T16:08:27.398Z,1.50
2022-08-14T16:10:58.936Z,1.55
2022-08-14T16:13:39.895Z,1.83
2022-08-14T16:16:47.585Z,2.00
2022-08-14T16:19:10.322Z,1.83
2022-08-14T16:24:33.656Z,1.10
2022-08-14T16:27:05.263Z,1.42
2022-08-14T16:29:38.527Z,1.83
2022-08-14T16:32:32.957Z,1.40
2022-08-14T16:34:57.631Z,1.52
2022-08-14T16:37:31.067Z,1.70
2022-08-14T16:40:02.636Z,1.50
2022-08-14T16:40:23.944Z,1.33
2022-08-14T16:43:02.660Z,1.60
2022-08-14T16:45:26.192Z,1.40
2022-08-14T16:47:57.037Z,1.93
2022-08-14T16:50:40.734Z,1.63
2022-08-14T16:53:12.780Z,1.42
2022-08-14T16:55:53.492Z,1.30
2022-08-14T16:58:29.898Z,1.40
2022-08-14T17:01:22.501Z,1.27
2022-08-14T17:03:58.828Z,1.30
2022-08-14T17:06:39.303Z,1.30
2022-08-14T17:09:27.754Z,1.40
2022-08-14T17:11:58.289Z,1.42
2022-08-14T17:14:28.803Z,1.40
2022-08-14T17:16:58.894Z,1.60
2022-08-14T17:19:41.220Z,1.70
2022-08-14T17:22:12.326Z,1.67
2022-08-14T17:24:58.161Z,1.50
2022-08-14T17:27:31.499Z,1.63
2022-08-14T17:30:00.062Z,1.58
2022-08-14T17:32:56.246Z,1.20
2022-08-14T17:35:38.949Z,1.52
2022-08-14T17:41:23.571Z,1.52
2022-08-14T17:46:37.513Z,1.60
2022-08-14T17:49:18.112Z,1.20
2022-08-14T17:52:07.773Z,1.38
2022-08-14T17:54:58.789Z,2.72
2022-08-14T17:57:35.254Z,1.58
2022-08-14T18:00:12.226Z,1.33
2022-08-14T18:02:41.663Z,1.30
2022-08-14T18:05:23.394Z,1.40
2022-08-14T18:08:32.130Z,1.30
2022-08-14T18:11:02.139Z,1.75
2022-08-14T18:13:52.082Z,1.63
2022-08-14T18:16:22.507Z,1.83
2022-08-14T18:18:52.286Z,1.50
2022-08-14T18:21:40.782Z,1.65
2022-08-14T18:24:28.328Z,1.33
2022-08-14T18:27:11.550Z,1.70
2022-08-14T18:29:55.252Z,1.85
2022-08-14T18:32:47.003Z,1.83
2022-08-14T18:35:17.912Z,1.73
2022-08-14T18:37:55.827Z,2.10
2022-08-14T18:40:35.051Z,2.00
2022-08-14T18:43:06.217Z,1.80
2022-08-14T18:45:41.618Z,1.98
2022-08-14T18:48:51.093Z,1.52
2022-08-14T18:51:46.135Z,1.55
2022-08-14T18:54:29.917Z,1.90
2022-08-14T18:57:05.190Z,1.50
2022-08-14T18:59:36.521Z,1.92
2022-08-14T19:02:44.363Z,1.80
2022-08-14T19:05:14.512Z,1.38
2022-08-14T19:07:48.146Z,2.35
2022-08-14T19:10:31.970Z,1.60
2022-08-14T19:13:12.399Z,2.03
2022-08-14T19:15:43.948Z,1.95
2022-08-14T19:18:30.514Z,1.67
2022-08-14T19:21:13.291Z,1.90
2022-08-14T19:23:44.146Z,1.60
2022-08-14T19:26:36.005Z,1.63
2022-08-14T19:32:00.022Z,1.77
2022-08-14T19:34:40.559Z,1.83
2022-08-14T19:37:47.945Z,1.67
2022-08-14T19:42:59.341Z,1.77
2022-08-14T19:45:30.158Z,1.73
2022-08-14T19:48:04.024Z,1.55
2022-08-14T19:50:40.835Z,1.77
2022-08-14T19:53:17.304Z,1.58
2022-08-14T19:56:01.853Z,1.90
2022-08-14T19:58:54.561Z,1.67
2022-08-14T20:01:26.592Z,1.70
2022-08-14T20:04:45.308Z,1.95
2022-08-14T20:07:01.460Z,1.63
2022-08-14T20:11:08.565Z,1.70
2022-08-14T20:12:28.983Z,1.85
2022-08-14T20:15:08.684Z,2.03
2022-08-14T20:17:40.234Z,2.08
2022-08-14T20:20:21.045Z,1.73
2022-08-14T20:23:01.897Z,1.90
2022-08-14T20:25:37.962Z,1.90
2022-08-14T20:28:30.040Z,1.80
2022-08-14T20:31:15.887Z,1.60
2022-08-14T20:34:06.225Z,1.45
2022-08-14T20:36:41.387Z,1.30
2022-08-14T20:39:15.605Z,1.77
2022-08-14T20:41:48.896Z,1.55
2022-08-14T20:44:39.103Z,1.20
2022-08-14T20:47:08.230Z,1.98
2022-08-14T20:49:37.342Z,1.73
2022-08-14T20:52:18.584Z,1.75
2022-08-14T20:54:51.546Z,1.80
2022-08-14T20:57:20.217Z,1.70
2022-08-14T20:59:53.666Z,1.90
2022-08-14T21:02:50.255Z,1.95
2022-08-14T21:05:22.049Z,1.90
2022-08-14T21:08:08.216Z,1.85
2022-08-14T21:10:51.763Z,1.70
2022-08-14T21:13:27.734Z,1.92
2022-08-14T21:16:33.335Z,1.63
2022-08-14T21:19:00.172Z,1.70
2022-08-14T21:21:40.743Z,2.25
2022-08-14T21:24:09.616Z,2.20
2022-08-14T21:27:02.081Z,1.58
2022-08-14T21:29:53.524Z,1.83
2022-08-14T21:32:33.666Z,2.67
2022-08-14T21:35:08.613Z,2.38
2022-08-14T21:37:43.659Z,2.22
2022-08-14T21:43:00.371Z,2.40
2022-08-14T21:45:28.502Z,2.38
2022-08-14T21:47:56.828Z,1.98
2022-08-14T21:50:56.628Z,2.33
2022-08-14T21:53:15.599Z,2.47
2022-08-14T21:55:44.725Z,2.33
2022-08-14T21:58:52.085Z,1.88
2022-08-14T22:01:02.714Z,2.38
2022-08-14T22:03:35.538Z,1.98
2022-08-14T22:06:05.987Z,2.03
2022-08-14T22:08:38.564Z,2.05
2022-08-14T22:11:07.334Z,1.95
2022-08-14T22:13:46.419Z,1.83
2022-08-14T22:16:59.979Z,1.85
2022-08-14T22:19:04.449Z,1.77
2022-08-14T22:24:12.966Z,1.83
2022-08-14T22:27:01.983Z,1.77
2022-08-14T22:29:31.107Z,1.60
2022-08-14T22:31:59.518Z,2.05
2022-08-14T22:34:27.828Z,1.85
2022-08-14T22:36:58.772Z,2.03
2022-08-14T22:40:17.022Z,2.40
2022-08-14T22:42:21.291Z,2.13
2022-08-14T22:44:56.528Z,1.67
2022-08-14T22:47:26.521Z,1.70
2022-08-14T22:50:28.996Z,2.08
2022-08-14T22:53:00.603Z,2.15
2022-08-14T22:55:28.979Z,2.08
2022-08-14T22:57:56.963Z,1.88
2022-08-14T23:00:30.335Z,1.92
2022-08-14T23:03:01.659Z,1.85
2022-08-14T23:05:39.037Z,1.83
2022-08-14T23:08:57.600Z,1.88
2022-08-14T23:11:03.094Z,2.10
2022-08-14T23:13:31.216Z,1.77
2022-08-14T23:15:59.701Z,1.85
2022-08-14T23:18:29.827Z,1.40
2022-08-14T23:20:57.963Z,1.92
2022-08-14T23:23:28.281Z,2.05
2022-08-14T23:26:47.254Z,1.77
2022-08-14T23:28:57.258Z,2.20
2022-08-14T23:31:35.712Z,2.08
2022-08-14T23:34:06.564Z,1.90
2022-08-14T23:36:52.556Z,2.00
2022-08-14T23:39:29.993Z,1.70
2022-08-14T23:42:02.490Z,2.05
2022-08-14T23:44:35.221Z,2.10
2022-08-14T23:47:10.712Z,2.08
2022-08-14T23:50:01.430Z,1.92
2022-08-14T23:52:50.820Z,2.00
2022-08-14T23:55:19.072Z,2.03
2022-08-14T23:57:57.279Z,2.15
